createdAt,value
2023-04-07T00:00:28.312Z,5.57
2023-04-07T00:02:54.852Z,5.54
2023-04-07T00:05:21.480Z,5.47
2023-04-07T00:07:55.949Z,5.46
2023-04-07T00:10:24.642Z,5.47
2023-04-07T00:12:51.293Z,5.43
2023-04-07T00:15:17.900Z,5.40
2023-04-07T00:17:44.446Z,5.38
2023-04-07T00:20:11.448Z,5.35
2023-04-07T00:22:37.839Z,5.35
2023-04-07T00:25:04.621Z,5.32
2023-04-07T00:27:31.081Z,5.30
2023-04-07T00:29:57.611Z,5.36
2023-04-07T00:32:24.135Z,5.35
2023-04-07T00:34:50.715Z,5.40
2023-04-07T00:37:17.468Z,5.33
2023-04-07T00:39:43.946Z,5.23
2023-04-07T00:42:10.947Z,5.19
2023-04-07T00:44:37.529Z,5.12
2023-04-07T00:47:04.049Z,5.08
2023-04-07T00:49:31.814Z,5.06
2023-04-07T00:51:58.753Z,5.02
2023-04-07T00:54:25.404Z,5.00
2023-04-07T00:56:53.549Z,5.04
2023-04-07T00:59:21.848Z,5.02
2023-04-07T01:01:58.805Z,5.02
2023-04-07T01:04:40.801Z,5.09
2023-04-07T01:07:35.999Z,5.11
2023-04-07T01:10:11.903Z,5.12
2023-04-07T01:12:53.872Z,5.04
2023-04-07T01:15:27.497Z,5.08
2023-04-07T01:18:01.816Z,5.09
2023-04-07T01:20:31.204Z,5.05
2023-04-07T01:23:04.920Z,4.94
2023-04-07T01:25:53.285Z,4.91
2023-04-07T01:28:25.983Z,4.90
2023-04-07T01:30:56.124Z,4.85
2023-04-07T01:33:24.597Z,4.88
2023-04-07T01:35:52.272Z,4.94
2023-04-07T01:38:20.584Z,5.00
2023-04-07T01:40:47.859Z,5.00
2023-04-07T01:43:15.881Z,5.00
2023-04-07T01:45:43.559Z,5.04
2023-04-07T01:48:11.321Z,5.05
2023-04-07T01:50:39.310Z,5.09
2023-04-07T01:53:06.117Z,5.11
2023-04-07T01:55:32.778Z,5.09
2023-04-07T01:58:07.099Z,5.09
2023-04-07T02:00:35.499Z,5.09
2023-04-07T02:03:21.219Z,5.09
2023-04-07T02:05:49.914Z,5.14
2023-04-07T02:08:19.953Z,5.19
2023-04-07T02:10:49.236Z,5.19
2023-04-07T02:13:18.806Z,5.16
2023-04-07T02:15:48.335Z,5.16
2023-04-07T02:18:19.930Z,5.17
2023-04-07T02:20:48.031Z,5.18
2023-04-07T02:23:14.542Z,5.19
2023-04-07T02:25:41.576Z,5.17
2023-04-07T02:28:08.129Z,5.19
2023-04-07T02:30:35.843Z,5.22
2023-04-07T02:33:02.677Z,5.24
2023-04-07T02:35:29.156Z,5.23
2023-04-07T02:37:55.634Z,5.17
2023-04-07T02:40:22.194Z,5.17
2023-04-07T02:42:48.670Z,5.16
2023-04-07T02:45:16.012Z,5.18
2023-04-07T02:47:42.623Z,5.24
2023-04-07T02:50:09.653Z,5.29
2023-04-07T02:52:36.151Z,5.25
2023-04-07T02:55:08.620Z,5.17
2023-04-07T02:57:35.683Z,5.20
2023-04-07T03:00:05.632Z,5.24
2023-04-07T03:02:49.716Z,5.23
2023-04-07T03:05:17.634Z,5.27
2023-04-07T03:07:44.242Z,5.23
2023-04-07T03:10:11.280Z,5.19
2023-04-07T03:12:37.779Z,5.14
2023-04-07T03:15:04.394Z,5.19
2023-04-07T03:17:31.676Z,5.21
2023-04-07T03:19:58.188Z,5.22
2023-04-07T03:22:26.463Z,5.24
2023-04-07T03:24:53.796Z,5.29
2023-04-07T03:27:22.972Z,5.32
2023-04-07T03:29:51.197Z,5.34
2023-04-07T03:32:17.843Z,5.36
2023-04-07T03:34:44.536Z,5.33
2023-04-07T03:37:13.157Z,5.27
2023-04-07T03:39:41.089Z,5.20
2023-04-07T03:42:22.367Z,5.12
2023-04-07T03:44:51.284Z,5.10
2023-04-07T03:47:17.981Z,5.06
2023-04-07T03:49:50.448Z,5.02
2023-04-07T03:52:17.399Z,4.94
2023-04-07T03:54:47.813Z,4.82
2023-04-07T03:57:14.351Z,4.80
2023-04-07T03:59:45.198Z,4.79
2023-04-07T04:02:12.025Z,4.74
2023-04-07T04:04:39.506Z,4.74
2023-04-07T04:07:08.188Z,4.70
2023-04-07T04:09:42.369Z,4.61
2023-04-07T04:12:08.804Z,4.55
2023-04-07T04:14:41.814Z,4.50
2023-04-07T04:17:09.948Z,4.51
2023-04-07T04:19:41.819Z,4.45
2023-04-07T04:22:19.176Z,4.33
2023-04-07T04:24:52.112Z,4.30
2023-04-07T04:27:19.068Z,4.20
2023-04-07T04:29:51.732Z,4.16
2023-04-07T04:32:25.150Z,4.05
2023-04-07T04:34:52.083Z,3.99
2023-04-07T04:37:18.613Z,3.98
2023-04-07T04:39:46.698Z,3.96
2023-04-07T04:42:17.445Z,3.94
2023-04-07T04:44:44.562Z,3.94
2023-04-07T04:47:12.559Z,3.96
2023-04-07T04:49:40.261Z,3.90
2023-04-07T04:52:07.040Z,3.87
2023-04-07T04:54:39.697Z,3.84
2023-04-07T04:57:06.174Z,3.89
2023-04-07T04:59:34.267Z,3.91
2023-04-07T05:02:03.293Z,3.85
2023-04-07T05:04:30.111Z,3.84
2023-04-07T05:07:08.361Z,3.90
2023-04-07T05:09:35.298Z,3.96
2023-04-07T05:12:02.594Z,3.93
2023-04-07T05:14:32.961Z,3.97
2023-04-07T05:17:04.824Z,4.11
2023-04-07T05:19:32.549Z,4.12
2023-04-07T05:22:04.813Z,4.10
2023-04-07T05:24:38.967Z,4.13
2023-04-07T05:27:05.544Z,4.13
2023-04-07T05:29:31.999Z,4.19
2023-04-07T05:31:58.534Z,4.18
2023-04-07T05:34:25.897Z,4.22
2023-04-07T05:36:54.821Z,4.26
2023-04-07T05:39:21.781Z,4.21
2023-04-07T05:41:52.175Z,4.19
2023-04-07T05:44:20.574Z,4.25
2023-04-07T05:46:47.027Z,4.34
2023-04-07T05:51:48.815Z,4.43
2023-04-07T05:54:15.937Z,4.53
2023-04-07T05:56:42.684Z,4.66
2023-04-07T05:59:09.940Z,4.77
2023-04-07T06:01:36.472Z,4.87
2023-04-07T06:04:04.223Z,4.96
2023-04-07T06:06:31.248Z,5.02
2023-04-07T06:08:57.772Z,5.03
2023-04-07T06:11:26.180Z,5.10
2023-04-07T06:13:52.972Z,5.20
2023-04-07T06:16:19.737Z,5.23
2023-04-07T06:18:46.600Z,5.18
2023-04-07T06:21:13.029Z,5.26
2023-04-07T06:23:39.590Z,5.35
2023-04-07T06:26:09.190Z,5.37
2023-04-07T06:28:35.668Z,5.35
2023-04-07T06:31:02.164Z,5.35
2023-04-07T06:33:29.488Z,5.33
2023-04-07T06:35:56.705Z,5.33
2023-04-07T06:38:23.278Z,5.32
2023-04-07T06:40:49.812Z,5.34
2023-04-07T06:43:16.254Z,5.40
2023-04-07T06:45:50.376Z,5.48
2023-04-07T06:48:16.862Z,5.51
2023-04-07T06:50:46.958Z,5.57
2023-04-07T06:53:13.386Z,5.63
2023-04-07T06:55:39.808Z,5.69
2023-04-07T06:58:06.330Z,5.78
2023-04-07T07:00:32.803Z,5.89
2023-04-07T07:02:59.449Z,6.03
2023-04-07T07:05:26.152Z,6.19
2023-04-07T07:07:52.687Z,6.32
2023-04-07T07:10:20.656Z,6.56
2023-04-07T07:12:47.108Z,6.77
2023-04-07T07:15:13.554Z,6.98
2023-04-07T07:17:40.020Z,7.18
2023-04-07T07:20:07.087Z,7.32
2023-04-07T07:22:33.581Z,7.45
2023-04-07T07:25:00.031Z,7.53
2023-04-07T07:27:27.047Z,7.80
2023-04-07T07:29:53.472Z,7.98
2023-04-07T07:32:20.043Z,8.08
2023-04-07T07:34:46.583Z,8.35
2023-04-07T07:37:13.096Z,8.54
2023-04-07T07:39:39.674Z,8.73
2023-04-07T07:42:06.115Z,8.77
2023-04-07T07:44:32.706Z,8.78
2023-04-07T07:46:59.198Z,8.69
2023-04-07T07:49:25.668Z,8.67
2023-04-07T07:51:52.052Z,8.55
2023-04-07T07:54:18.544Z,8.37
2023-04-07T07:56:45.269Z,8.19
2023-04-07T07:59:18.268Z,8.23
2023-04-07T08:01:44.782Z,8.28
2023-04-07T08:04:11.373Z,8.04
2023-04-07T08:06:38.088Z,7.95
2023-04-07T08:09:06.079Z,7.96
2023-04-07T08:11:32.542Z,8.05
2023-04-07T08:13:58.983Z,8.16
2023-04-07T08:16:26.871Z,8.13
2023-04-07T08:18:53.457Z,8.17
2023-04-07T08:21:20.954Z,8.23
2023-04-07T08:23:48.019Z,8.36
2023-04-07T08:26:14.802Z,8.48
2023-04-07T08:28:41.265Z,8.51
2023-04-07T08:31:07.922Z,8.51
2023-04-07T08:33:34.423Z,8.50
2023-04-07T08:36:01.199Z,8.42
2023-04-07T08:38:27.986Z,8.45
2023-04-07T08:41:01.330Z,8.45
2023-04-07T08:43:29.170Z,8.56
2023-04-07T08:45:57.689Z,8.81
2023-04-07T08:48:28.587Z,8.74
2023-04-07T08:50:55.973Z,8.71
2023-04-07T08:53:34.457Z,8.69
2023-04-07T08:56:02.056Z,8.64
2023-04-07T08:58:30.183Z,8.65
2023-04-07T09:00:56.619Z,8.74
2023-04-07T09:03:24.487Z,8.78
2023-04-07T09:05:51.322Z,8.97
2023-04-07T09:08:17.761Z,9.08
2023-04-07T09:10:44.288Z,9.12
2023-04-07T09:13:10.793Z,9.18
2023-04-07T09:15:38.795Z,9.26
2023-04-07T09:18:06.379Z,9.35
2023-04-07T09:21:01.909Z,9.37
2023-04-07T09:23:33.859Z,9.39
2023-04-07T09:26:24.689Z,9.29
2023-04-07T09:28:57.426Z,9.34
2023-04-07T09:31:43.160Z,9.38
2023-04-07T09:34:30.425Z,9.49
2023-04-07T09:36:57.786Z,9.47
2023-04-07T09:39:24.823Z,9.66
2023-04-07T09:41:52.046Z,9.55
2023-04-07T09:44:19.321Z,9.51
2023-04-07T09:46:53.808Z,9.39
2023-04-07T09:49:21.306Z,9.58
2023-04-07T09:51:53.592Z,9.68
2023-04-07T09:54:37.740Z,9.60
2023-04-07T09:57:07.140Z,9.58
2023-04-07T09:59:35.456Z,9.68
2023-04-07T10:02:02.889Z,9.55
2023-04-07T10:04:29.521Z,9.68
2023-04-07T10:06:58.171Z,9.79
2023-04-07T10:09:26.791Z,9.88
2023-04-07T10:11:54.444Z,9.99
2023-04-07T10:14:23.305Z,10.01
2023-04-07T10:16:51.856Z,10.08
2023-04-07T10:19:19.149Z,10.25
2023-04-07T10:21:49.564Z,10.29
2023-04-07T10:24:45.018Z,10.09
2023-04-07T10:27:16.432Z,9.93
2023-04-07T10:29:46.527Z,9.93
2023-04-07T10:32:13.656Z,9.72
2023-04-07T10:35:01.231Z,9.88
2023-04-07T10:37:28.608Z,9.96
2023-04-07T10:40:34.163Z,9.93
2023-04-07T10:43:01.230Z,10.06
2023-04-07T10:45:52.164Z,10.17
2023-04-07T10:48:19.666Z,10.08
2023-04-07T10:51:07.790Z,10.20
2023-04-07T10:53:38.363Z,10.37
2023-04-07T10:56:05.753Z,10.48
2023-04-07T10:58:33.324Z,10.43
2023-04-07T11:00:59.709Z,10.53
2023-04-07T11:03:27.501Z,10.69
2023-04-07T11:06:08.168Z,10.90
2023-04-07T11:08:42.227Z,10.84
2023-04-07T11:11:11.109Z,10.75
2023-04-07T11:13:48.625Z,10.28
2023-04-07T11:16:17.477Z,10.09
2023-04-07T11:18:44.922Z,10.13
2023-04-07T11:21:11.420Z,10.21
2023-04-07T11:23:42.433Z,10.18
2023-04-07T11:26:11.469Z,10.50
2023-04-07T11:28:54.096Z,11.02
2023-04-07T11:31:28.614Z,11.40
2023-04-07T11:34:05.539Z,11.73
2023-04-07T11:36:40.328Z,12.04
2023-04-07T11:39:19.956Z,11.89
2023-04-07T11:41:48.121Z,11.99
2023-04-07T11:44:14.797Z,12.37
2023-04-07T11:47:03.470Z,12.37
2023-04-07T11:49:31.537Z,12.57
2023-04-07T11:52:04.168Z,12.55
2023-04-07T11:54:46.804Z,12.52
2023-04-07T11:57:13.923Z,12.42
2023-04-07T11:59:41.418Z,11.96
2023-04-07T12:02:08.440Z,12.12
2023-04-07T12:04:37.691Z,12.37
2023-04-07T12:07:11.592Z,12.22
2023-04-07T12:09:38.314Z,11.98
2023-04-07T12:12:07.575Z,11.52
2023-04-07T12:14:34.758Z,11.54
2023-04-07T12:17:03.385Z,11.34
2023-04-07T12:19:35.889Z,11.13
2023-04-07T12:22:02.803Z,11.25
2023-04-07T12:24:29.344Z,11.31
2023-04-07T12:26:56.126Z,11.30
2023-04-07T12:29:22.948Z,11.20
2023-04-07T12:31:51.110Z,10.96
2023-04-07T12:34:18.238Z,10.78
2023-04-07T12:36:44.774Z,10.63
2023-04-07T12:39:11.514Z,10.73
2023-04-07T12:41:38.714Z,10.70
2023-04-07T12:44:05.852Z,10.60
2023-04-07T12:46:32.356Z,10.44
2023-04-07T12:48:58.974Z,10.32
2023-04-07T12:51:26.055Z,10.15
2023-04-07T12:53:54.081Z,9.95
2023-04-07T12:56:22.330Z,9.69
2023-04-07T12:58:48.797Z,9.95
2023-04-07T13:01:15.324Z,10.02
2023-04-07T13:03:41.954Z,10.36
2023-04-07T13:06:08.551Z,10.58
2023-04-07T13:08:34.958Z,10.64
2023-04-07T13:11:01.447Z,10.87
2023-04-07T13:13:28.280Z,10.76
2023-04-07T13:15:54.752Z,10.70
2023-04-07T13:18:21.772Z,10.82
2023-04-07T13:21:02.958Z,10.79
2023-04-07T13:23:42.912Z,10.52
2023-04-07T13:26:10.379Z,10.09
2023-04-07T13:28:37.353Z,10.28
2023-04-07T13:31:03.918Z,10.67
2023-04-07T13:33:30.369Z,10.72
2023-04-07T13:35:56.901Z,11.08
2023-04-07T13:38:23.326Z,11.30
2023-04-07T13:40:49.841Z,11.46
2023-04-07T13:43:18.498Z,12.42
2023-04-07T13:45:44.946Z,12.91
2023-04-07T13:48:11.481Z,13.02
2023-04-07T13:50:38.466Z,13.30
2023-04-07T13:53:04.930Z,12.96
2023-04-07T13:55:31.321Z,12.33
2023-04-07T13:57:57.747Z,12.91
2023-04-07T14:00:24.282Z,13.12
2023-04-07T14:02:50.817Z,13.26
2023-04-07T14:05:17.382Z,12.92
2023-04-07T14:07:43.797Z,12.61
2023-04-07T14:10:10.848Z,12.08
2023-04-07T14:12:37.381Z,12.04
2023-04-07T14:15:04.425Z,11.66
2023-04-07T14:17:30.934Z,10.79
2023-04-07T14:19:57.412Z,10.74
2023-04-07T14:22:23.861Z,10.45
2023-04-07T14:24:50.271Z,10.44
2023-04-07T14:27:20.784Z,10.45
2023-04-07T14:29:48.177Z,10.80
2023-04-07T14:32:15.681Z,11.09
2023-04-07T14:34:42.202Z,11.45
2023-04-07T14:37:08.693Z,11.58
2023-04-07T14:39:35.525Z,11.74
2023-04-07T14:42:02.007Z,11.51
2023-04-07T14:44:30.892Z,10.97
2023-04-07T14:46:57.420Z,10.38
2023-04-07T14:49:25.066Z,9.86
2023-04-07T14:51:51.877Z,9.39
2023-04-07T14:54:18.320Z,9.10
2023-04-07T14:56:45.096Z,8.91
2023-04-07T14:59:11.516Z,8.68
2023-04-07T15:01:38.751Z,8.64
2023-04-07T15:04:05.716Z,8.68
2023-04-07T15:06:32.262Z,8.64
2023-04-07T15:08:58.750Z,8.64
2023-04-07T15:11:26.178Z,8.65
2023-04-07T15:13:52.622Z,8.77
2023-04-07T15:16:19.112Z,8.95
2023-04-07T15:18:47.198Z,8.97
2023-04-07T15:21:15.501Z,9.10
2023-04-07T15:23:42.263Z,9.26
2023-04-07T15:26:09.945Z,9.37
2023-04-07T15:28:36.420Z,9.56
2023-04-07T15:31:03.387Z,10.08
2023-04-07T15:33:29.960Z,11.37
2023-04-07T15:35:56.588Z,10.94
2023-04-07T15:38:23.061Z,10.54
2023-04-07T15:40:49.533Z,10.04
2023-04-07T15:43:16.225Z,9.64
2023-04-07T15:45:43.874Z,9.24
2023-04-07T15:48:11.373Z,8.85
2023-04-07T15:50:38.088Z,8.55
2023-04-07T15:53:04.826Z,8.48
2023-04-07T15:55:35.340Z,8.40
2023-04-07T15:58:03.122Z,8.22
2023-04-07T16:00:32.183Z,7.92
2023-04-07T16:02:58.979Z,7.78
2023-04-07T16:05:25.541Z,7.71
2023-04-07T16:07:51.943Z,7.58
2023-04-07T16:10:19.883Z,7.47
2023-04-07T16:12:46.967Z,7.36
2023-04-07T16:15:16.765Z,7.31
2023-04-07T16:17:48.473Z,7.30
2023-04-07T16:20:15.761Z,7.26
2023-04-07T16:22:47.941Z,7.18
2023-04-07T16:25:16.045Z,7.16
2023-04-07T16:27:44.504Z,7.04
2023-04-07T16:30:13.634Z,6.71
2023-04-07T16:32:40.957Z,6.53
2023-04-07T16:35:07.774Z,6.48
2023-04-07T16:37:34.257Z,6.42
2023-04-07T16:40:00.789Z,6.33
2023-04-07T16:42:31.108Z,6.30
2023-04-07T16:44:57.699Z,6.34
2023-04-07T16:47:26.071Z,6.30
2023-04-07T16:49:52.698Z,6.20
2023-04-07T16:52:20.533Z,6.02
2023-04-07T16:54:47.226Z,6.06
2023-04-07T16:57:13.717Z,5.92
2023-04-07T16:59:40.734Z,5.94
2023-04-07T17:02:16.078Z,5.87
2023-04-07T17:04:43.847Z,5.88
2023-04-07T17:07:10.742Z,5.88
2023-04-07T17:09:37.364Z,5.73
2023-04-07T17:12:05.789Z,5.82
2023-04-07T17:14:32.637Z,5.80
2023-04-07T17:16:59.139Z,5.75
2023-04-07T17:19:25.590Z,5.73
2023-04-07T17:21:52.076Z,5.50
2023-04-07T17:24:18.650Z,5.46
2023-04-07T17:26:49.355Z,5.47
2023-04-07T17:29:16.741Z,5.54
2023-04-07T17:31:43.937Z,5.56
2023-04-07T17:34:11.238Z,5.53
2023-04-07T17:36:38.020Z,5.50
2023-04-07T17:39:05.082Z,5.51
2023-04-07T17:41:34.372Z,5.47
2023-04-07T17:44:01.441Z,5.40
2023-04-07T17:46:28.152Z,5.34
2023-04-07T17:48:55.024Z,5.23
2023-04-07T17:51:21.471Z,5.18
2023-04-07T17:53:48.532Z,5.16
2023-04-07T17:56:15.226Z,5.26
2023-04-07T17:58:41.746Z,5.15
2023-04-07T18:01:11.503Z,5.26
2023-04-07T18:03:38.278Z,5.18
2023-04-07T18:06:06.213Z,5.22
2023-04-07T18:08:32.971Z,5.28
2023-04-07T18:10:59.414Z,5.38
2023-04-07T18:13:26.036Z,5.45
2023-04-07T18:15:52.856Z,5.43
2023-04-07T18:18:19.660Z,5.39
2023-04-07T18:20:46.592Z,5.25
2023-04-07T18:23:13.621Z,5.23
2023-04-07T18:25:40.150Z,5.26
2023-04-07T18:28:06.596Z,5.34
2023-04-07T18:30:33.052Z,5.34
2023-04-07T18:32:59.496Z,5.34
2023-04-07T18:35:26.184Z,5.39
2023-04-07T18:37:52.686Z,5.38
2023-04-07T18:40:19.149Z,5.38
2023-04-07T18:42:45.705Z,5.38
2023-04-07T18:45:12.139Z,5.41
2023-04-07T18:47:38.988Z,5.44
2023-04-07T18:50:06.117Z,5.47
2023-04-07T18:52:32.607Z,5.47
2023-04-07T18:54:59.021Z,5.48
2023-04-07T18:57:25.586Z,5.48
2023-04-07T18:59:52.886Z,5.48
2023-04-07T19:02:19.484Z,5.50
2023-04-07T19:04:46.142Z,5.59
2023-04-07T19:07:12.611Z,5.60
2023-04-07T19:09:39.821Z,5.49
2023-04-07T19:12:06.534Z,5.49
2023-04-07T19:14:32.986Z,5.42
2023-04-07T19:16:59.494Z,5.41
2023-04-07T19:19:26.410Z,5.50
2023-04-07T19:21:52.820Z,5.53
2023-04-07T19:24:19.345Z,5.59
2023-04-07T19:26:45.940Z,5.52
2023-04-07T19:29:12.489Z,5.53
2023-04-07T19:31:39.548Z,5.52
2023-04-07T19:34:06.203Z,5.52
2023-04-07T19:36:32.860Z,5.59
2023-04-07T19:38:59.288Z,5.42
2023-04-07T19:41:25.950Z,5.28
2023-04-07T19:43:53.265Z,5.22
2023-04-07T19:46:19.810Z,5.27
2023-04-07T19:48:46.856Z,5.38
2023-04-07T19:51:13.358Z,5.41
2023-04-07T19:53:39.928Z,5.29
2023-04-07T19:56:06.490Z,5.24
2023-04-07T19:58:34.220Z,5.14
2023-04-07T20:01:00.982Z,5.06
2023-04-07T20:03:27.566Z,5.06
2023-04-07T20:05:54.391Z,5.05
2023-04-07T20:08:21.340Z,5.04
2023-04-07T20:10:50.750Z,5.07
2023-04-07T20:13:17.183Z,5.07
2023-04-07T20:15:44.145Z,5.09
2023-04-07T20:18:11.131Z,5.14
2023-04-07T20:20:37.697Z,5.14
2023-04-07T20:23:04.166Z,5.14
2023-04-07T20:25:30.615Z,5.08
2023-04-07T20:27:57.063Z,5.14
2023-04-07T20:30:23.502Z,5.06
2023-04-07T20:32:49.989Z,5.07
2023-04-07T20:35:16.671Z,5.11
2023-04-07T20:37:44.378Z,5.08
2023-04-07T20:40:11.751Z,5.12
2023-04-07T20:42:38.462Z,5.20
2023-04-07T20:45:06.375Z,5.15
2023-04-07T20:47:35.820Z,5.01
2023-04-07T20:50:02.704Z,5.00
2023-04-07T20:52:29.215Z,5.00
2023-04-07T20:54:56.498Z,5.00
2023-04-07T20:57:23.039Z,4.96
2023-04-07T20:59:49.643Z,5.01
2023-04-07T21:02:16.324Z,4.97
2023-04-07T21:04:42.865Z,4.99
2023-04-07T21:07:10.563Z,4.98
2023-04-07T21:09:36.990Z,5.02
2023-04-07T21:12:04.298Z,4.99
2023-04-07T21:14:31.935Z,5.07
2023-04-07T21:16:59.122Z,5.16
2023-04-07T21:19:26.042Z,5.08
2023-04-07T21:21:52.512Z,5.05
2023-04-07T21:24:19.069Z,5.05
2023-04-07T21:26:45.543Z,5.08
2023-04-07T21:29:12.141Z,5.08
2023-04-07T21:31:39.028Z,5.07
2023-04-07T21:34:05.529Z,5.02
2023-04-07T21:36:32.710Z,4.97
2023-04-07T21:38:59.147Z,4.97
2023-04-07T21:41:25.897Z,4.94
2023-04-07T21:43:52.387Z,4.91
2023-04-07T21:46:19.049Z,4.94
2023-04-07T21:48:45.748Z,4.98
2023-04-07T21:51:12.475Z,5.00
2023-04-07T21:53:39.224Z,5.03
2023-04-07T21:56:08.255Z,5.05
2023-04-07T21:58:35.278Z,5.07
2023-04-07T22:01:01.768Z,5.07
2023-04-07T22:03:29.490Z,5.03
2023-04-07T22:06:00.143Z,5.04
2023-04-07T22:08:27.236Z,5.07
2023-04-07T22:10:53.694Z,5.07
2023-04-07T22:13:20.383Z,5.00
2023-04-07T22:15:46.853Z,5.01
2023-04-07T22:18:13.624Z,5.02
2023-04-07T22:20:40.447Z,4.98
2023-04-07T22:23:06.884Z,5.00
2023-04-07T22:25:33.299Z,5.04
2023-04-07T22:27:59.817Z,4.98
2023-04-07T22:30:26.614Z,4.96
2023-04-07T22:32:53.080Z,5.00
2023-04-07T22:35:19.616Z,5.02
2023-04-07T22:37:46.189Z,5.04
2023-04-07T22:40:12.613Z,5.02
2023-04-07T22:42:39.986Z,4.96
2023-04-07T22:45:07.038Z,5.00
2023-04-07T22:47:33.517Z,4.93
2023-04-07T22:49:59.987Z,4.87
2023-04-07T22:52:26.438Z,4.87
2023-04-07T22:54:52.964Z,4.88
2023-04-07T22:57:19.396Z,4.85
2023-04-07T22:59:45.978Z,4.83
2023-04-07T23:02:12.483Z,4.81
2023-04-07T23:04:39.126Z,4.84
2023-04-07T23:07:05.723Z,4.84
2023-04-07T23:09:32.214Z,4.87
2023-04-07T23:11:58.682Z,4.87
2023-04-07T23:14:25.291Z,4.87
2023-04-07T23:16:51.771Z,4.83
2023-04-07T23:19:18.314Z,4.75
2023-04-07T23:21:44.765Z,4.74
2023-04-07T23:24:11.295Z,4.74
2023-04-07T23:26:37.744Z,4.73
2023-04-07T23:29:04.394Z,4.70
2023-04-07T23:31:31.192Z,4.70
2023-04-07T23:33:59.585Z,4.70
2023-04-07T23:36:27.107Z,4.69
2023-04-07T23:38:55.874Z,4.69
2023-04-07T23:41:22.720Z,4.71
2023-04-07T23:43:49.207Z,4.67
2023-04-07T23:46:15.929Z,4.69
2023-04-07T23:48:42.527Z,4.67
2023-04-07T23:51:08.991Z,4.72
2023-04-07T23:53:35.455Z,4.77
2023-04-07T23:56:01.904Z,4.66
2023-04-07T23:58:28.322Z,4.68
